sensor_id;sensor_type;location;lat;lon;timestamp;P1;durP1;ratioP1;P2;durP2;ratioP2
48791;SDS011;34587;48.816;9.420;2023-07-22T04:15:49;2.83;;;2.22;;
48791;SDS011;34587;48.816;9.420;2023-07-22T04:18:15;3.67;;;2.33;;
48791;SDS011;34587;48.816;9.420;2023-07-22T04:20:41;3.45;;;2.50;;
48791;SDS011;34587;48.816;9.420;2023-07-22T04:23:07;4.07;;;2.30;;
48791;SDS011;34587;48.816;9.420;2023-07-22T04:25:32;3.72;;;2.63;;
48791;SDS011;34587;48.816;9.420;2023-07-22T04:27:57;3.58;;;2.50;;
48791;SDS011;34587;48.816;9.420;2023-07-22T04:30:23;5.03;;;2.85;;
48791;SDS011;34587;48.816;9.420;2023-07-22T04:32:49;6.47;;;2.35;;
48791;SDS011;34587;48.816;9.420;2023-07-22T04:35:15;3.40;;;2.50;;
48791;SDS011;34587;48.816;9.420;2023-07-22T04:37:42;4.30;;;2.55;;
48791;SDS011;34587;48.816;9.420;2023-07-22T04:40:09;3.83;;;2.50;;
48791;SDS011;34587;48.816;9.420;2023-07-22T04:42:39;2.15;;;1.98;;
48791;SDS011;34587;48.816;9.420;2023-07-22T04:45:04;4.97;;;2.95;;
48791;SDS011;34587;48.816;9.420;2023-07-22T04:47:31;3.10;;;2.53;;
48791;SDS011;34587;48.816;9.420;2023-07-22T04:49:56;3.38;;;2.20;;
48791;SDS011;34587;48.816;9.420;2023-07-22T04:52:21;4.65;;;2.50;;
48791;SDS011;34587;48.816;9.420;2023-07-22T04:54:47;3.75;;;2.90;;
48791;SDS011;34587;48.816;9.420;2023-07-22T04:57:12;3.13;;;2.25;;
48791;SDS011;34587;48.816;9.420;2023-07-22T04:59:37;2.50;;;2.30;;
48791;SDS011;34587;48.816;9.420;2023-07-22T05:02:03;2.10;;;1.88;;
48791;SDS011;34587;48.816;9.420;2023-07-22T05:04:29;6.20;;;2.63;;
48791;SDS011;34587;48.816;9.420;2023-07-22T05:06:54;3.47;;;2.13;;
48791;SDS011;34587;48.816;9.420;2023-07-22T05:09:19;2.75;;;1.95;;
48791;SDS011;34587;48.816;9.420;2023-07-22T05:11:45;7.10;;;2.65;;
48791;SDS011;34587;48.816;9.420;2023-07-22T05:14:10;2.50;;;2.30;;
48791;SDS011;34587;48.816;9.420;2023-07-22T05:16:35;2.42;;;2.00;;
48791;SDS011;34587;48.816;9.420;2023-07-22T05:19:01;3.80;;;2.33;;
48791;SDS011;34587;48.816;9.420;2023-07-22T05:21:26;3.53;;;1.98;;
48791;SDS011;34587;48.816;9.420;2023-07-22T05:23:51;3.08;;;2.60;;
48791;SDS011;34587;48.816;9.420;2023-07-22T05:26:17;5.05;;;2.25;;
48791;SDS011;34587;48.816;9.420;2023-07-22T05:28:42;3.33;;;2.45;;
48791;SDS011;34587;48.816;9.420;2023-07-22T05:31:07;2.38;;;2.17;;
48791;SDS011;34587;48.816;9.420;2023-07-22T05:33:33;4.95;;;2.42;;
48791;SDS011;34587;48.816;9.420;2023-07-22T05:35:58;2.97;;;2.15;;
48791;SDS011;34587;48.816;9.420;2023-07-22T05:38:24;2.85;;;2.05;;
48791;SDS011;34587;48.816;9.420;2023-07-22T05:40:49;3.50;;;2.33;;
48791;SDS011;34587;48.816;9.420;2023-07-22T05:43:14;2.15;;;1.60;;
48791;SDS011;34587;48.816;9.420;2023-07-22T05:45:40;2.28;;;2.08;;
48791;SDS011;34587;48.816;9.420;2023-07-22T05:48:05;1.98;;;1.73;;
48791;SDS011;34587;48.816;9.420;2023-07-22T05:50:30;3.25;;;2.30;;
48791;SDS011;34587;48.816;9.420;2023-07-22T05:52:56;3.08;;;1.70;;
48791;SDS011;34587;48.816;9.420;2023-07-22T05:55:21;2.75;;;1.75;;
48791;SDS011;34587;48.816;9.420;2023-07-22T05:57:46;3.35;;;2.20;;
48791;SDS011;34587;48.816;9.420;2023-07-22T06:00:12;2.60;;;1.98;;
48791;SDS011;34587;48.816;9.420;2023-07-22T06:02:38;2.72;;;1.80;;
48791;SDS011;34587;48.816;9.420;2023-07-22T06:05:03;2.00;;;1.73;;
48791;SDS011;34587;48.816;9.420;2023-07-22T06:07:29;2.35;;;1.80;;
48791;SDS011;34587;48.816;9.420;2023-07-22T06:09:54;2.10;;;1.85;;
48791;SDS011;34587;48.816;9.420;2023-07-22T06:12:20;2.38;;;2.00;;
48791;SDS011;34587;48.816;9.420;2023-07-22T06:14:45;2.83;;;2.22;;
48791;SDS011;34587;48.816;9.420;2023-07-22T06:17:10;2.42;;;1.90;;
48791;SDS011;34587;48.816;9.420;2023-07-22T06:19:36;1.55;;;1.45;;
48791;SDS011;34587;48.816;9.420;2023-07-22T06:22:01;4.40;;;2.08;;
48791;SDS011;34587;48.816;9.420;2023-07-22T06:24:26;2.45;;;1.90;;
48791;SDS011;34587;48.816;9.420;2023-07-22T06:26:51;2.60;;;1.90;;
48791;SDS011;34587;48.816;9.420;2023-07-22T06:29:17;2.13;;;1.65;;
48791;SDS011;34587;48.816;9.420;2023-07-22T06:31:42;2.13;;;1.92;;
48791;SDS011;34587;48.816;9.420;2023-07-22T06:34:07;4.25;;;1.48;;
48791;SDS011;34587;48.816;9.420;2023-07-22T06:36:32;3.75;;;1.88;;
48791;SDS011;34587;48.816;9.420;2023-07-22T06:38:58;4.30;;;1.67;;
48791;SDS011;34587;48.816;9.420;2023-07-22T06:41:23;2.38;;;1.80;;
48791;SDS011;34587;48.816;9.420;2023-07-22T06:43:50;2.33;;;1.30;;
48791;SDS011;34587;48.816;9.420;2023-07-22T06:46:16;1.73;;;1.58;;
48791;SDS011;34587;48.816;9.420;2023-07-22T06:48:41;1.30;;;1.20;;
48791;SDS011;34587;48.816;9.420;2023-07-22T06:51:06;1.45;;;1.35;;
48791;SDS011;34587;48.816;9.420;2023-07-22T06:53:32;3.05;;;1.75;;
48791;SDS011;34587;48.816;9.420;2023-07-22T06:55:58;1.92;;;1.50;;
48791;SDS011;34587;48.816;9.420;2023-07-22T06:58:23;1.45;;;1.10;;
48791;SDS011;34587;48.816;9.420;2023-07-22T07:00:52;2.25;;;1.00;;
48791;SDS011;34587;48.816;9.420;2023-07-22T07:03:18;2.88;;;1.40;;
48791;SDS011;34587;48.816;9.420;2023-07-22T07:05:43;1.10;;;1.00;;
48791;SDS011;34587;48.816;9.420;2023-07-22T07:08:09;1.80;;;1.20;;
48791;SDS011;34587;48.816;9.420;2023-07-22T07:10:37;1.50;;;1.40;;
48791;SDS011;34587;48.816;9.420;2023-07-22T07:13:04;4.25;;;1.25;;
48791;SDS011;34587;48.816;9.420;2023-07-22T07:15:29;1.63;;;1.08;;
48791;SDS011;34587;48.816;9.420;2023-07-22T07:17:54;1.38;;;1.08;;
48791;SDS011;34587;48.816;9.420;2023-07-22T07:20:20;1.08;;;0.98;;
48791;SDS011;34587;48.816;9.420;2023-07-22T07:22:45;2.05;;;1.30;;
48791;SDS011;34587;48.816;9.420;2023-07-22T07:25:10;4.05;;;1.13;;
48791;SDS011;34587;48.816;9.420;2023-07-22T07:27:36;3.28;;;0.93;;
48791;SDS011;34587;48.816;9.420;2023-07-22T07:30:02;1.13;;;0.80;;
48791;SDS011;34587;48.816;9.420;2023-07-22T07:32:27;1.10;;;0.93;;
48791;SDS011;34587;48.816;9.420;2023-07-22T07:34:52;4.50;;;1.20;;
48791;SDS011;34587;48.816;9.420;2023-07-22T07:37:18;4.55;;;1.00;;
48791;SDS011;34587;48.816;9.420;2023-07-22T07:39:44;0.70;;;0.70;;
48791;SDS011;34587;48.816;9.420;2023-07-22T07:42:09;2.33;;;1.00;;
48791;SDS011;34587;48.816;9.420;2023-07-22T07:44:34;1.20;;;1.10;;
48791;SDS011;34587;48.816;9.420;2023-07-22T07:46:59;1.50;;;1.13;;
48791;SDS011;34587;48.816;9.420;2023-07-22T07:49:25;0.83;;;0.83;;
48791;SDS011;34587;48.816;9.420;2023-07-22T07:51:50;1.25;;;0.90;;
48791;SDS011;34587;48.816;9.420;2023-07-22T07:54:16;2.38;;;1.33;;
48791;SDS011;34587;48.816;9.420;2023-07-22T07:56:41;2.13;;;1.08;;
48791;SDS011;34587;48.816;9.420;2023-07-22T07:59:06;1.10;;;1.00;;
48791;SDS011;34587;48.816;9.420;2023-07-22T08:01:33;1.15;;;1.00;;
48791;SDS011;34587;48.816;9.420;2023-07-22T08:04:00;1.73;;;0.93;;
48791;SDS011;34587;48.816;9.420;2023-07-22T08:06:26;0.90;;;0.80;;
48791;SDS011;34587;48.816;9.420;2023-07-22T08:08:51;0.90;;;0.90;;
48791;SDS011;34587;48.816;9.420;2023-07-22T08:11:16;1.00;;;0.90;;
48791;SDS011;34587;48.816;9.420;2023-07-22T08:13:42;1.27;;;0.88;;
48791;SDS011;34587;48.816;9.420;2023-07-22T08:16:09;1.70;;;1.00;;
48791;SDS011;34587;48.816;9.420;2023-07-22T08:18:35;2.33;;;1.30;;
48791;SDS011;34587;48.816;9.420;2023-07-22T08:21:02;1.92;;;0.90;;
48791;SDS011;34587;48.816;9.420;2023-07-22T08:23:28;1.95;;;1.08;;
48791;SDS011;34587;48.816;9.420;2023-07-22T08:25:54;1.27;;;0.80;;
48791;SDS011;34587;48.816;9.420;2023-07-22T08:28:19;1.42;;;0.95;;
48791;SDS011;34587;48.816;9.420;2023-07-22T08:30:45;1.20;;;1.10;;
48791;SDS011;34587;48.816;9.420;2023-07-22T08:33:10;0.60;;;0.60;;
48791;SDS011;34587;48.816;9.420;2023-07-22T08:35:37;3.75;;;1.27;;
48791;SDS011;34587;48.816;9.420;2023-07-22T08:38:04;1.50;;;0.90;;
48791;SDS011;34587;48.816;9.420;2023-07-22T08:40:33;1.02;;;1.00;;
48791;SDS011;34587;48.816;9.420;2023-07-22T08:43:02;3.95;;;0.70;;
48791;SDS011;34587;48.816;9.420;2023-07-22T08:45:30;1.38;;;0.90;;
48791;SDS011;34587;48.816;9.420;2023-07-22T08:48:03;1.08;;;0.85;;
48791;SDS011;34587;48.816;9.420;2023-07-22T08:50:34;1.08;;;0.70;;
48791;SDS011;34587;48.816;9.420;2023-07-22T08:53:04;0.98;;;0.90;;
48791;SDS011;34587;48.816;9.420;2023-07-22T08:55:30;0.90;;;0.77;;
48791;SDS011;34587;48.816;9.420;2023-07-22T08:57:55;0.95;;;0.70;;
48791;SDS011;34587;48.816;9.420;2023-07-22T09:00:21;1.35;;;0.80;;
48791;SDS011;34587;48.816;9.420;2023-07-22T09:02:47;1.35;;;0.77;;
48791;SDS011;34587;48.816;9.420;2023-07-22T09:05:13;0.75;;;0.73;;
48791;SDS011;34587;48.816;9.420;2023-07-22T09:07:38;0.85;;;0.68;;
48791;SDS011;34587;48.816;9.420;2023-07-22T09:10:06;0.47;;;0.47;;
48791;SDS011;34587;48.816;9.420;2023-07-22T09:12:34;0.82;;;0.65;;
48791;SDS011;34587;48.816;9.420;2023-07-22T09:15:14;0.73;;;0.73;;
48791;SDS011;34587;48.816;9.420;2023-07-22T09:17:40;1.48;;;0.90;;
48791;SDS011;34587;48.816;9.420;2023-07-22T09:20:06;1.20;;;0.80;;
48791;SDS011;34587;48.816;9.420;2023-07-22T09:22:32;3.00;;;1.00;;
48791;SDS011;34587;48.816;9.420;2023-07-22T09:27:54;2.03;;;1.10;;
48791;SDS011;34587;48.816;9.420;2023-07-22T09:30:25;0.60;;;0.60;;
48791;SDS011;34587;48.816;9.420;2023-07-22T09:33:00;0.70;;;0.70;;
48791;SDS011;34587;48.816;9.420;2023-07-22T09:35:28;0.80;;;0.70;;
48791;SDS011;34587;48.816;9.420;2023-07-22T09:37:55;1.17;;;0.85;;
48791;SDS011;34587;48.816;9.420;2023-07-22T09:40:22;1.20;;;1.10;;
48791;SDS011;34587;48.816;9.420;2023-07-22T09:42:53;5.43;;;0.95;;
48791;SDS011;34587;48.816;9.420;2023-07-22T09:45:21;0.82;;;0.80;;
48791;SDS011;34587;48.816;9.420;2023-07-22T09:47:48;1.53;;;1.13;;
48791;SDS011;34587;48.816;9.420;2023-07-22T09:50:16;1.75;;;1.20;;
48791;SDS011;34587;48.816;9.420;2023-07-22T09:52:45;0.82;;;0.80;;
48791;SDS011;34587;48.816;9.420;2023-07-22T09:55:15;2.33;;;1.02;;
48791;SDS011;34587;48.816;9.420;2023-07-22T09:57:46;1.48;;;0.90;;
48791;SDS011;34587;48.816;9.420;2023-07-22T10:00:13;3.13;;;0.95;;
48791;SDS011;34587;48.816;9.420;2023-07-22T10:02:40;2.25;;;1.10;;
48791;SDS011;34587;48.816;9.420;2023-07-22T10:05:09;2.07;;;1.27;;
48791;SDS011;34587;48.816;9.420;2023-07-22T10:07:37;1.60;;;1.25;;
48791;SDS011;34587;48.816;9.420;2023-07-22T10:10:06;2.50;;;0.90;;
48791;SDS011;34587;48.816;9.420;2023-07-22T10:12:32;1.48;;;1.15;;
48791;SDS011;34587;48.816;9.420;2023-07-22T10:14:58;1.20;;;1.10;;
48791;SDS011;34587;48.816;9.420;2023-07-22T10:17:25;0.77;;;0.77;;
48791;SDS011;34587;48.816;9.420;2023-07-22T10:19:52;1.35;;;0.73;;
48791;SDS011;34587;48.816;9.420;2023-07-22T10:22:19;0.93;;;0.68;;
48791;SDS011;34587;48.816;9.420;2023-07-22T10:24:45;2.15;;;1.17;;
48791;SDS011;34587;48.816;9.420;2023-07-22T10:27:12;0.70;;;0.70;;
48791;SDS011;34587;48.816;9.420;2023-07-22T10:32:06;2.20;;;1.20;;
48791;SDS011;34587;48.816;9.420;2023-07-22T10:34:32;3.80;;;0.70;;
48791;SDS011;34587;48.816;9.420;2023-07-22T10:36:57;5.60;;;0.70;;
48791;SDS011;34587;48.816;9.420;2023-07-22T10:39:26;2.10;;;0.77;;
48791;SDS011;34587;48.816;9.420;2023-07-22T10:42:05;1.70;;;0.90;;
48791;SDS011;34587;48.816;9.420;2023-07-22T10:44:31;0.83;;;0.83;;
48791;SDS011;34587;48.816;9.420;2023-07-22T10:46:59;0.82;;;0.82;;
48791;SDS011;34587;48.816;9.420;2023-07-22T10:49:24;1.38;;;1.20;;
48791;SDS011;34587;48.816;9.420;2023-07-22T10:52:06;0.60;;;0.60;;
48791;SDS011;34587;48.816;9.420;2023-07-22T10:54:33;3.25;;;1.10;;
48791;SDS011;34587;48.816;9.420;2023-07-22T10:57:22;1.25;;;0.80;;
48791;SDS011;34587;48.816;9.420;2023-07-22T10:59:51;1.00;;;0.80;;
48791;SDS011;34587;48.816;9.420;2023-07-22T11:02:27;1.25;;;0.85;;
48791;SDS011;34587;48.816;9.420;2023-07-22T11:04:57;0.90;;;0.63;;
48791;SDS011;34587;48.816;9.420;2023-07-22T11:07:30;2.47;;;0.82;;
48791;SDS011;34587;48.816;9.420;2023-07-22T11:10:14;2.60;;;0.75;;
48791;SDS011;34587;48.816;9.420;2023-07-22T11:12:42;1.95;;;1.15;;
48791;SDS011;34587;48.816;9.420;2023-07-22T11:15:09;1.58;;;0.90;;
48791;SDS011;34587;48.816;9.420;2023-07-22T11:17:34;0.65;;;0.65;;
48791;SDS011;34587;48.816;9.420;2023-07-22T11:20:00;4.00;;;0.93;;
48791;SDS011;34587;48.816;9.420;2023-07-22T11:22:26;2.58;;;0.80;;
48791;SDS011;34587;48.816;9.420;2023-07-22T11:24:54;1.15;;;1.05;;
48791;SDS011;34587;48.816;9.420;2023-07-22T11:27:19;1.15;;;0.80;;
48791;SDS011;34587;48.816;9.420;2023-07-22T11:29:45;0.98;;;0.85;;
48791;SDS011;34587;48.816;9.420;2023-07-22T11:32:17;0.95;;;0.85;;
48791;SDS011;34587;48.816;9.420;2023-07-22T11:34:44;1.20;;;1.10;;
48791;SDS011;34587;48.816;9.420;2023-07-22T11:37:10;13.25;;;1.00;;
48791;SDS011;34587;48.816;9.420;2023-07-22T11:39:35;0.82;;;0.82;;
48791;SDS011;34587;48.816;9.420;2023-07-22T11:42:03;2.65;;;1.17;;
48791;SDS011;34587;48.816;9.420;2023-07-22T11:44:29;0.70;;;0.70;;
48791;SDS011;34587;48.816;9.420;2023-07-22T11:46:58;1.00;;;0.90;;
48791;SDS011;34587;48.816;9.420;2023-07-22T11:52:05;1.10;;;0.82;;
48791;SDS011;34587;48.816;9.420;2023-07-22T11:54:32;0.60;;;0.60;;
48791;SDS011;34587;48.816;9.420;2023-07-22T11:57:09;0.65;;;0.65;;
48791;SDS011;34587;48.816;9.420;2023-07-22T11:59:36;1.40;;;0.90;;
48791;SDS011;34587;48.816;9.420;2023-07-22T12:02:03;0.75;;;0.70;;
48791;SDS011;34587;48.816;9.420;2023-07-22T12:04:32;2.58;;;0.70;;
48791;SDS011;34587;48.816;9.420;2023-07-22T12:06:59;1.70;;;0.90;;
48791;SDS011;34587;48.816;9.420;2023-07-22T12:09:25;1.17;;;1.05;;
48791;SDS011;34587;48.816;9.420;2023-07-22T12:12:00;0.90;;;0.88;;
48791;SDS011;34587;48.816;9.420;2023-07-22T12:14:34;0.80;;;0.70;;
48791;SDS011;34587;48.816;9.420;2023-07-22T12:17:00;2.17;;;0.95;;
48791;SDS011;34587;48.816;9.420;2023-07-22T12:19:29;1.58;;;0.82;;
48791;SDS011;34587;48.816;9.420;2023-07-22T12:21:57;1.20;;;0.88;;
48791;SDS011;34587;48.816;9.420;2023-07-22T12:24:22;1.35;;;0.80;;
48791;SDS011;34587;48.816;9.420;2023-07-22T12:26:47;1.13;;;1.02;;
48791;SDS011;34587;48.816;9.420;2023-07-22T12:29:13;0.75;;;0.75;;
48791;SDS011;34587;48.816;9.420;2023-07-22T12:31:38;6.80;;;1.20;;
48791;SDS011;34587;48.816;9.420;2023-07-22T12:34:03;1.38;;;0.70;;
48791;SDS011;34587;48.816;9.420;2023-07-22T12:36:29;4.85;;;1.27;;
48791;SDS011;34587;48.816;9.420;2023-07-22T12:38:54;1.23;;;0.93;;
48791;SDS011;34587;48.816;9.420;2023-07-22T12:41:19;1.00;;;0.80;;
48791;SDS011;34587;48.816;9.420;2023-07-22T12:43:45;0.82;;;0.75;;
48791;SDS011;34587;48.816;9.420;2023-07-22T12:46:10;1.02;;;0.90;;
48791;SDS011;34587;48.816;9.420;2023-07-22T12:48:35;1.25;;;1.08;;
48791;SDS011;34587;48.816;9.420;2023-07-22T12:51:01;1.25;;;1.00;;
48791;SDS011;34587;48.816;9.420;2023-07-22T12:53:26;1.33;;;1.15;;
48791;SDS011;34587;48.816;9.420;2023-07-22T12:55:51;1.15;;;0.98;;
48791;SDS011;34587;48.816;9.420;2023-07-22T12:58:17;2.50;;;1.15;;
48791;SDS011;34587;48.816;9.420;2023-07-22T13:00:42;1.85;;;1.00;;
48791;SDS011;34587;48.816;9.420;2023-07-22T13:03:07;3.67;;;0.75;;
48791;SDS011;34587;48.816;9.420;2023-07-22T13:05:33;1.50;;;1.27;;
48791;SDS011;34587;48.816;9.420;2023-07-22T13:07:58;0.98;;;0.80;;
48791;SDS011;34587;48.816;9.420;2023-07-22T13:10:26;0.88;;;0.85;;
48791;SDS011;34587;48.816;9.420;2023-07-22T13:12:55;0.82;;;0.82;;
48791;SDS011;34587;48.816;9.420;2023-07-22T13:15:21;1.92;;;1.42;;
48791;SDS011;34587;48.816;9.420;2023-07-22T13:17:46;1.60;;;1.10;;
48791;SDS011;34587;48.816;9.420;2023-07-22T13:20:11;2.92;;;1.98;;
48791;SDS011;34587;48.816;9.420;2023-07-22T13:22:37;2.35;;;1.23;;
48791;SDS011;34587;48.816;9.420;2023-07-22T13:25:03;1.20;;;1.00;;
48791;SDS011;34587;48.816;9.420;2023-07-22T13:27:29;1.50;;;1.00;;
48791;SDS011;34587;48.816;9.420;2023-07-22T13:29:54;0.93;;;0.82;;
48791;SDS011;34587;48.816;9.420;2023-07-22T13:32:20;1.02;;;0.93;;
48791;SDS011;34587;48.816;9.420;2023-07-22T13:34:45;1.67;;;1.20;;
48791;SDS011;34587;48.816;9.420;2023-07-22T13:37:10;1.20;;;0.90;;
48791;SDS011;34587;48.816;9.420;2023-07-22T13:39:35;1.88;;;0.80;;
48791;SDS011;34587;48.816;9.420;2023-07-22T13:42:01;1.02;;;0.90;;
48791;SDS011;34587;48.816;9.420;2023-07-22T13:44:26;1.05;;;0.85;;
48791;SDS011;34587;48.816;9.420;2023-07-22T13:46:51;3.90;;;0.90;;
48791;SDS011;34587;48.816;9.420;2023-07-22T13:49:17;0.80;;;0.80;;
48791;SDS011;34587;48.816;9.420;2023-07-22T13:51:42;1.17;;;1.08;;
48791;SDS011;34587;48.816;9.420;2023-07-22T13:54:08;1.48;;;0.88;;
48791;SDS011;34587;48.816;9.420;2023-07-22T13:56:33;1.27;;;1.08;;
48791;SDS011;34587;48.816;9.420;2023-07-22T13:58:59;1.25;;;1.02;;
48791;SDS011;34587;48.816;9.420;2023-07-22T14:01:26;6.30;;;1.17;;
48791;SDS011;34587;48.816;9.420;2023-07-22T14:03:52;1.17;;;1.08;;
48791;SDS011;34587;48.816;9.420;2023-07-22T14:06:18;1.20;;;1.10;;
48791;SDS011;34587;48.816;9.420;2023-07-22T14:08:43;1.55;;;1.00;;
48791;SDS011;34587;48.816;9.420;2023-07-22T14:11:08;2.42;;;1.48;;
48791;SDS011;34587;48.816;9.420;2023-07-22T14:13:34;2.42;;;1.23;;
48791;SDS011;34587;48.816;9.420;2023-07-22T14:15:59;2.38;;;1.45;;
48791;SDS011;34587;48.816;9.420;2023-07-22T14:18:25;4.93;;;2.92;;
48791;SDS011;34587;48.816;9.420;2023-07-22T14:20:50;1.05;;;0.98;;
48791;SDS011;34587;48.816;9.420;2023-07-22T14:23:16;1.55;;;1.40;;
48791;SDS011;34587;48.816;9.420;2023-07-22T14:25:41;4.97;;;1.83;;
48791;SDS011;34587;48.816;9.420;2023-07-22T14:28:06;1.42;;;1.23;;
48791;SDS011;34587;48.816;9.420;2023-07-22T14:30:32;1.23;;;1.05;;
48791;SDS011;34587;48.816;9.420;2023-07-22T14:32:57;1.42;;;1.05;;
48791;SDS011;34587;48.816;9.420;2023-07-22T14:35:22;2.30;;;1.27;;
48791;SDS011;34587;48.816;9.420;2023-07-22T14:37:48;1.60;;;1.10;;
48791;SDS011;34587;48.816;9.420;2023-07-22T14:40:14;1.52;;;1.23;;
48791;SDS011;34587;48.816;9.420;2023-07-22T14:42:39;2.90;;;1.30;;
48791;SDS011;34587;48.816;9.420;2023-07-22T14:45:05;2.38;;;1.42;;
48791;SDS011;34587;48.816;9.420;2023-07-22T14:47:31;2.67;;;1.30;;
48791;SDS011;34587;48.816;9.420;2023-07-22T14:49:56;1.48;;;1.15;;
48791;SDS011;34587;48.816;9.420;2023-07-22T14:52:22;1.63;;;1.30;;
48791;SDS011;34587;48.816;9.420;2023-07-22T14:54:47;1.58;;;1.27;;
48791;SDS011;34587;48.816;9.420;2023-07-22T14:57:14;2.70;;;1.38;;
48791;SDS011;34587;48.816;9.420;2023-07-22T14:59:40;4.72;;;1.10;;
48791;SDS011;34587;48.816;9.420;2023-07-22T15:02:05;6.35;;;4.15;;
48791;SDS011;34587;48.816;9.420;2023-07-22T15:04:30;1.88;;;1.63;;
48791;SDS011;34587;48.816;9.420;2023-07-22T15:06:56;1.35;;;0.98;;
48791;SDS011;34587;48.816;9.420;2023-07-22T15:09:22;1.15;;;0.98;;
48791;SDS011;34587;48.816;9.420;2023-07-22T15:11:47;1.02;;;1.00;;
48791;SDS011;34587;48.816;9.420;2023-07-22T15:14:12;3.67;;;1.30;;
48791;SDS011;34587;48.816;9.420;2023-07-22T15:16:37;1.80;;;1.38;;
48791;SDS011;34587;48.816;9.420;2023-07-22T15:19:03;1.52;;;1.35;;
48791;SDS011;34587;48.816;9.420;2023-07-22T15:21:28;1.95;;;1.30;;
48791;SDS011;34587;48.816;9.420;2023-07-22T15:23:53;1.60;;;1.50;;
48791;SDS011;34587;48.816;9.420;2023-07-22T15:26:19;2.22;;;1.63;;
48791;SDS011;34587;48.816;9.420;2023-07-22T15:28:44;2.40;;;1.65;;
48791;SDS011;34587;48.816;9.420;2023-07-22T15:31:11;2.10;;;1.73;;
48791;SDS011;34587;48.816;9.420;2023-07-22T15:33:37;2.35;;;1.73;;
48791;SDS011;34587;48.816;9.420;2023-07-22T15:36:02;1.67;;;1.40;;
48791;SDS011;34587;48.816;9.420;2023-07-22T15:38:28;2.95;;;1.60;;
48791;SDS011;34587;48.816;9.420;2023-07-22T15:40:53;2.20;;;1.63;;
48791;SDS011;34587;48.816;9.420;2023-07-22T15:43:18;11.45;;;2.38;;
48791;SDS011;34587;48.816;9.420;2023-07-22T15:45:44;3.85;;;1.65;;
48791;SDS011;34587;48.816;9.420;2023-07-22T15:48:09;2.35;;;1.58;;
48791;SDS011;34587;48.816;9.420;2023-07-22T15:50:34;7.05;;;1.67;;
48791;SDS011;34587;48.816;9.420;2023-07-22T15:53:00;1.92;;;1.50;;
48791;SDS011;34587;48.816;9.420;2023-07-22T15:55:25;2.67;;;1.75;;
48791;SDS011;34587;48.816;9.420;2023-07-22T15:57:50;1.88;;;1.60;;
48791;SDS011;34587;48.816;9.420;2023-07-22T16:00:15;1.77;;;1.40;;
48791;SDS011;34587;48.816;9.420;2023-07-22T16:02:41;3.53;;;1.67;;
48791;SDS011;34587;48.816;9.420;2023-07-22T16:05:06;2.50;;;1.90;;
48791;SDS011;34587;48.816;9.420;2023-07-22T16:07:32;2.60;;;1.98;;
48791;SDS011;34587;48.816;9.420;2023-07-22T16:09:58;2.67;;;1.80;;
48791;SDS011;34587;48.816;9.420;2023-07-22T16:12:23;1.42;;;1.30;;
48791;SDS011;34587;48.816;9.420;2023-07-22T16:14:48;4.50;;;2.38;;
48791;SDS011;34587;48.816;9.420;2023-07-22T16:17:14;2.25;;;1.30;;
48791;SDS011;34587;48.816;9.420;2023-07-22T16:19:39;2.40;;;1.42;;
48791;SDS011;34587;48.816;9.420;2023-07-22T16:22:04;2.28;;;1.40;;
48791;SDS011;34587;48.816;9.420;2023-07-22T16:24:30;2.25;;;1.20;;
48791;SDS011;34587;48.816;9.420;2023-07-22T16:26:55;1.35;;;1.17;;
48791;SDS011;34587;48.816;9.420;2023-07-22T16:29:20;1.57;;;1.40;;
48791;SDS011;34587;48.816;9.420;2023-07-22T16:31:46;2.83;;;1.33;;
48791;SDS011;34587;48.816;9.420;2023-07-22T16:34:11;1.80;;;1.52;;
48791;SDS011;34587;48.816;9.420;2023-07-22T16:36:36;2.33;;;1.25;;
48791;SDS011;34587;48.816;9.420;2023-07-22T16:39:02;2.53;;;1.73;;
48791;SDS011;34587;48.816;9.420;2023-07-22T16:41:28;3.67;;;2.30;;
48791;SDS011;34587;48.816;9.420;2023-07-22T16:43:53;6.07;;;4.15;;
48791;SDS011;34587;48.816;9.420;2023-07-22T16:46:18;8.50;;;5.03;;
48791;SDS011;34587;48.816;9.420;2023-07-22T16:48:44;2.92;;;2.35;;
48791;SDS011;34587;48.816;9.420;2023-07-22T16:51:09;7.40;;;3.70;;
48791;SDS011;34587;48.816;9.420;2023-07-22T16:53:34;3.45;;;2.08;;
48791;SDS011;34587;48.816;9.420;2023-07-22T16:55:59;2.75;;;1.80;;
48791;SDS011;34587;48.816;9.420;2023-07-22T16:58:25;4.35;;;1.73;;
48791;SDS011;34587;48.816;9.420;2023-07-22T17:00:50;3.47;;;1.40;;
48791;SDS011;34587;48.816;9.420;2023-07-22T17:03:15;3.45;;;1.48;;
48791;SDS011;34587;48.816;9.420;2023-07-22T17:05:41;2.78;;;1.15;;
48791;SDS011;34587;48.816;9.420;2023-07-22T17:08:06;2.55;;;1.08;;
48791;SDS011;34587;48.816;9.420;2023-07-22T17:10:32;4.32;;;1.70;;
48791;SDS011;34587;48.816;9.420;2023-07-22T17:12:57;1.52;;;1.23;;
48791;SDS011;34587;48.816;9.420;2023-07-22T17:15:22;1.45;;;1.35;;
48791;SDS011;34587;48.816;9.420;2023-07-22T17:17:48;1.58;;;1.25;;
48791;SDS011;34587;48.816;9.420;2023-07-22T17:20:13;2.40;;;1.33;;
48791;SDS011;34587;48.816;9.420;2023-07-22T17:22:39;4.50;;;1.52;;
48791;SDS011;34587;48.816;9.420;2023-07-22T17:25:04;1.40;;;1.30;;
48791;SDS011;34587;48.816;9.420;2023-07-22T17:27:30;3.15;;;1.48;;
48791;SDS011;34587;48.816;9.420;2023-07-22T17:29:55;1.38;;;1.00;;
48791;SDS011;34587;48.816;9.420;2023-07-22T17:32:21;2.33;;;1.63;;
48791;SDS011;34587;48.816;9.420;2023-07-22T17:34:46;1.85;;;1.55;;
48791;SDS011;34587;48.816;9.420;2023-07-22T17:37:11;2.13;;;1.65;;
48791;SDS011;34587;48.816;9.420;2023-07-22T17:39:36;1.55;;;1.45;;
48791;SDS011;34587;48.816;9.420;2023-07-22T17:42:02;1.48;;;1.38;;
48791;SDS011;34587;48.816;9.420;2023-07-22T17:44:27;2.47;;;1.50;;
48791;SDS011;34587;48.816;9.420;2023-07-22T17:46:53;2.33;;;1.63;;
48791;SDS011;34587;48.816;9.420;2023-07-22T17:49:19;4.80;;;1.45;;
48791;SDS011;34587;48.816;9.420;2023-07-22T17:51:45;2.80;;;1.73;;
48791;SDS011;34587;48.816;9.420;2023-07-22T17:54:10;2.75;;;1.40;;
48791;SDS011;34587;48.816;9.420;2023-07-22T17:56:35;2.58;;;1.40;;
48791;SDS011;34587;48.816;9.420;2023-07-22T17:59:01;2.13;;;1.30;;
48791;SDS011;34587;48.816;9.420;2023-07-22T18:01:27;2.80;;;1.42;;
48791;SDS011;34587;48.816;9.420;2023-07-22T18:03:52;1.83;;;1.42;;
48791;SDS011;34587;48.816;9.420;2023-07-22T18:06:18;5.07;;;1.67;;
48791;SDS011;34587;48.816;9.420;2023-07-22T18:08:43;2.17;;;1.42;;
48791;SDS011;34587;48.816;9.420;2023-07-22T18:11:08;2.30;;;1.48;;
48791;SDS011;34587;48.816;9.420;2023-07-22T18:13:33;1.60;;;1.00;;
48791;SDS011;34587;48.816;9.420;2023-07-22T18:15:59;3.78;;;1.42;;
48791;SDS011;34587;48.816;9.420;2023-07-22T18:18:25;2.53;;;1.42;;
48791;SDS011;34587;48.816;9.420;2023-07-22T18:20:50;3.33;;;1.25;;
48791;SDS011;34587;48.816;9.420;2023-07-22T18:23:15;2.65;;;1.50;;
48791;SDS011;34587;48.816;9.420;2023-07-22T18:25:40;2.28;;;1.27;;
48791;SDS011;34587;48.816;9.420;2023-07-22T18:28:06;3.75;;;1.95;;
48791;SDS011;34587;48.816;9.420;2023-07-22T18:30:31;1.98;;;1.63;;
48791;SDS011;34587;48.816;9.420;2023-07-22T18:32:56;2.70;;;1.80;;
48791;SDS011;34587;48.816;9.420;2023-07-22T18:35:21;3.97;;;2.03;;
48791;SDS011;34587;48.816;9.420;2023-07-22T18:37:47;3.78;;;2.25;;
48791;SDS011;34587;48.816;9.420;2023-07-22T18:40:12;5.18;;;2.20;;
48791;SDS011;34587;48.816;9.420;2023-07-22T18:42:37;5.63;;;2.05;;
48791;SDS011;34587;48.816;9.420;2023-07-22T18:45:03;5.30;;;2.78;;
48791;SDS011;34587;48.816;9.420;2023-07-22T18:47:29;3.65;;;1.67;;
48791;SDS011;34587;48.816;9.420;2023-07-22T18:49:54;3.03;;;1.75;;
48791;SDS011;34587;48.816;9.420;2023-07-22T18:52:19;3.05;;;2.13;;
48791;SDS011;34587;48.816;9.420;2023-07-22T18:54:45;4.32;;;2.05;;
48791;SDS011;34587;48.816;9.420;2023-07-22T18:57:10;5.97;;;2.28;;
48791;SDS011;34587;48.816;9.420;2023-07-22T18:59:36;5.88;;;2.10;;
48791;SDS011;34587;48.816;9.420;2023-07-22T19:02:02;3.17;;;1.95;;
48791;SDS011;34587;48.816;9.420;2023-07-22T19:04:27;7.82;;;2.33;;